sensor_id;sensor_type;location;lat;lon;timestamp;P1;durP1;ratioP1;P2;durP2;ratioP2
85881;SDS011;76395;51.392;21.182;2024-03-02T02:03:19;21.88;;;12.45;;
85881;SDS011;76395;51.392;21.182;2024-03-02T02:04:20;23.35;;;14.18;;
85881;SDS011;76395;51.392;21.182;2024-03-02T02:05:27;27.33;;;15.20;;
85881;SDS011;76395;51.392;21.182;2024-03-02T02:06:28;27.98;;;15.13;;
85881;SDS011;76395;51.392;21.182;2024-03-02T02:07:38;25.48;;;14.00;;
85881;SDS011;76395;51.392;21.182;2024-03-02T02:08:39;29.83;;;13.88;;
85881;SDS011;76395;51.392;21.182;2024-03-02T02:09:41;25.23;;;14.63;;
85881;SDS011;76395;51.392;21.182;2024-03-02T02:10:42;24.85;;;14.75;;
85881;SDS011;76395;51.392;21.182;2024-03-02T02:11:46;27.23;;;15.77;;
85881;SDS011;76395;51.392;21.182;2024-03-02T02:12:49;26.02;;;15.00;;
85881;SDS011;76395;51.392;21.182;2024-03-02T02:13:50;23.52;;;14.73;;
85881;SDS011;76395;51.392;21.182;2024-03-02T02:14:52;20.90;;;13.77;;
85881;SDS011;76395;51.392;21.182;2024-03-02T02:15:53;24.20;;;13.90;;
85881;SDS011;76395;51.392;21.182;2024-03-02T02:16:59;25.08;;;14.40;;
85881;SDS011;76395;51.392;21.182;2024-03-02T02:18:10;30.05;;;15.23;;
85881;SDS011;76395;51.392;21.182;2024-03-02T02:19:14;28.50;;;14.32;;
85881;SDS011;76395;51.392;21.182;2024-03-02T02:20:15;24.17;;;15.35;;
85881;SDS011;76395;51.392;21.182;2024-03-02T02:21:18;29.80;;;16.63;;
85881;SDS011;76395;51.392;21.182;2024-03-02T02:22:33;26.50;;;15.70;;
85881;SDS011;76395;51.392;21.182;2024-03-02T02:23:34;27.52;;;15.32;;
85881;SDS011;76395;51.392;21.182;2024-03-02T02:24:59;25.95;;;15.70;;
85881;SDS011;76395;51.392;21.182;2024-03-02T02:26:02;25.55;;;15.32;;
85881;SDS011;76395;51.392;21.182;2024-03-02T02:27:04;26.85;;;15.15;;
85881;SDS011;76395;51.392;21.182;2024-03-02T02:28:09;25.85;;;15.27;;
85881;SDS011;76395;51.392;21.182;2024-03-02T02:29:16;26.77;;;14.93;;
85881;SDS011;76395;51.392;21.182;2024-03-02T02:30:20;29.90;;;15.65;;
85881;SDS011;76395;51.392;21.182;2024-03-02T02:31:36;26.35;;;15.02;;
85881;SDS011;76395;51.392;21.182;2024-03-02T02:32:41;29.65;;;13.73;;
85881;SDS011;76395;51.392;21.182;2024-03-02T02:33:44;25.70;;;14.85;;
85881;SDS011;76395;51.392;21.182;2024-03-02T02:34:55;23.27;;;14.45;;
85881;SDS011;76395;51.392;21.182;2024-03-02T02:35:56;27.17;;;15.05;;
85881;SDS011;76395;51.392;21.182;2024-03-02T02:37:01;25.65;;;14.07;;
85881;SDS011;76395;51.392;21.182;2024-03-02T02:38:04;28.00;;;15.40;;
85881;SDS011;76395;51.392;21.182;2024-03-02T02:39:07;23.35;;;15.20;;
85881;SDS011;76395;51.392;21.182;2024-03-02T02:40:11;25.73;;;14.15;;
85881;SDS011;76395;51.392;21.182;2024-03-02T02:41:14;28.70;;;15.15;;
85881;SDS011;76395;51.392;21.182;2024-03-02T02:42:15;25.48;;;15.27;;
85881;SDS011;76395;51.392;21.182;2024-03-02T02:43:16;27.10;;;15.27;;
85881;SDS011;76395;51.392;21.182;2024-03-02T02:44:17;27.60;;;15.60;;
85881;SDS011;76395;51.392;21.182;2024-03-02T02:45:18;24.48;;;15.15;;
85881;SDS011;76395;51.392;21.182;2024-03-02T02:46:19;26.33;;;15.65;;
85881;SDS011;76395;51.392;21.182;2024-03-02T02:47:21;26.60;;;15.57;;
85881;SDS011;76395;51.392;21.182;2024-03-02T02:48:22;31.23;;;16.45;;
85881;SDS011;76395;51.392;21.182;2024-03-02T02:49:23;25.58;;;15.02;;
85881;SDS011;76395;51.392;21.182;2024-03-02T02:50:25;27.30;;;15.88;;
85881;SDS011;76395;51.392;21.182;2024-03-02T02:51:26;26.38;;;16.08;;
85881;SDS011;76395;51.392;21.182;2024-03-02T02:52:30;28.27;;;16.02;;
85881;SDS011;76395;51.392;21.182;2024-03-02T02:53:38;28.02;;;16.45;;
85881;SDS011;76395;51.392;21.182;2024-03-02T02:55:42;28.35;;;16.05;;
85881;SDS011;76395;51.392;21.182;2024-03-02T02:56:45;26.90;;;15.13;;
85881;SDS011;76395;51.392;21.182;2024-03-02T02:57:49;25.90;;;15.95;;
85881;SDS011;76395;51.392;21.182;2024-03-02T02:58:50;27.58;;;16.20;;
85881;SDS011;76395;51.392;21.182;2024-03-02T03:00:01;27.42;;;15.48;;
85881;SDS011;76395;51.392;21.182;2024-03-02T03:01:06;27.38;;;14.65;;
85881;SDS011;76395;51.392;21.182;2024-03-02T03:02:14;31.20;;;16.20;;
85881;SDS011;76395;51.392;21.182;2024-03-02T03:03:16;26.35;;;15.45;;
85881;SDS011;76395;51.392;21.182;2024-03-02T03:05:19;27.58;;;16.15;;
85881;SDS011;76395;51.392;21.182;2024-03-02T03:06:20;27.20;;;15.10;;
85881;SDS011;76395;51.392;21.182;2024-03-02T03:07:23;31.92;;;17.27;;
85881;SDS011;76395;51.392;21.182;2024-03-02T03:08:25;28.33;;;15.70;;
85881;SDS011;76395;51.392;21.182;2024-03-02T03:09:29;31.38;;;16.75;;
85881;SDS011;76395;51.392;21.182;2024-03-02T03:10:36;27.98;;;15.95;;
85881;SDS011;76395;51.392;21.182;2024-03-02T03:11:37;30.58;;;16.02;;
85881;SDS011;76395;51.392;21.182;2024-03-02T03:12:39;29.42;;;15.85;;
85881;SDS011;76395;51.392;21.182;2024-03-02T03:13:43;30.52;;;17.10;;
85881;SDS011;76395;51.392;21.182;2024-03-02T03:14:44;29.70;;;16.23;;
85881;SDS011;76395;51.392;21.182;2024-03-02T03:15:45;31.73;;;16.60;;
85881;SDS011;76395;51.392;21.182;2024-03-02T03:16:46;33.45;;;18.08;;
85881;SDS011;76395;51.392;21.182;2024-03-02T03:17:48;27.52;;;16.05;;
85881;SDS011;76395;51.392;21.182;2024-03-02T03:18:51;27.17;;;16.15;;
85881;SDS011;76395;51.392;21.182;2024-03-02T03:19:55;31.90;;;16.77;;
85881;SDS011;76395;51.392;21.182;2024-03-02T03:20:59;29.27;;;16.52;;
85881;SDS011;76395;51.392;21.182;2024-03-02T03:22:01;30.70;;;15.50;;
85881;SDS011;76395;51.392;21.182;2024-03-02T03:23:03;29.33;;;16.25;;
85881;SDS011;76395;51.392;21.182;2024-03-02T03:24:05;31.02;;;16.90;;
85881;SDS011;76395;51.392;21.182;2024-03-02T03:25:06;29.88;;;16.83;;
85881;SDS011;76395;51.392;21.182;2024-03-02T03:26:13;28.38;;;15.90;;
85881;SDS011;76395;51.392;21.182;2024-03-02T03:27:14;28.35;;;16.95;;
85881;SDS011;76395;51.392;21.182;2024-03-02T03:28:15;31.33;;;15.63;;
85881;SDS011;76395;51.392;21.182;2024-03-02T03:29:16;33.42;;;16.58;;
85881;SDS011;76395;51.392;21.182;2024-03-02T03:30:17;32.22;;;16.90;;
85881;SDS011;76395;51.392;21.182;2024-03-02T03:31:19;30.83;;;16.38;;
85881;SDS011;76395;51.392;21.182;2024-03-02T03:32:20;31.63;;;17.58;;
85881;SDS011;76395;51.392;21.182;2024-03-02T03:33:21;33.10;;;17.08;;
85881;SDS011;76395;51.392;21.182;2024-03-02T03:34:22;28.13;;;16.80;;
85881;SDS011;76395;51.392;21.182;2024-03-02T03:35:24;30.25;;;16.38;;
85881;SDS011;76395;51.392;21.182;2024-03-02T03:36:26;32.00;;;17.60;;
85881;SDS011;76395;51.392;21.182;2024-03-02T03:37:30;29.83;;;17.75;;
85881;SDS011;76395;51.392;21.182;2024-03-02T03:38:35;29.35;;;15.40;;
85881;SDS011;76395;51.392;21.182;2024-03-02T03:39:40;32.35;;;17.30;;
85881;SDS011;76395;51.392;21.182;2024-03-02T03:40:42;33.25;;;17.38;;
85881;SDS011;76395;51.392;21.182;2024-03-02T03:41:42;34.58;;;17.40;;
85881;SDS011;76395;51.392;21.182;2024-03-02T03:42:43;33.95;;;17.08;;
85881;SDS011;76395;51.392;21.182;2024-03-02T03:43:45;32.47;;;17.10;;
85881;SDS011;76395;51.392;21.182;2024-03-02T03:44:49;32.15;;;17.23;;
85881;SDS011;76395;51.392;21.182;2024-03-02T03:45:51;32.90;;;16.70;;
85881;SDS011;76395;51.392;21.182;2024-03-02T03:46:53;32.40;;;16.90;;
85881;SDS011;76395;51.392;21.182;2024-03-02T03:47:55;29.95;;;16.55;;
85881;SDS011;76395;51.392;21.182;2024-03-02T03:48:57;33.13;;;17.85;;
85881;SDS011;76395;51.392;21.182;2024-03-02T03:50:04;29.48;;;15.00;;
85881;SDS011;76395;51.392;21.182;2024-03-02T03:51:07;27.17;;;16.40;;
85881;SDS011;76395;51.392;21.182;2024-03-02T03:52:12;29.90;;;17.42;;
85881;SDS011;76395;51.392;21.182;2024-03-02T03:53:16;31.50;;;17.38;;
85881;SDS011;76395;51.392;21.182;2024-03-02T03:54:22;33.90;;;17.05;;
85881;SDS011;76395;51.392;21.182;2024-03-02T03:55:25;30.60;;;17.48;;
85881;SDS011;76395;51.392;21.182;2024-03-02T03:56:27;32.00;;;16.90;;
85881;SDS011;76395;51.392;21.182;2024-03-02T03:57:31;34.53;;;17.85;;
85881;SDS011;76395;51.392;21.182;2024-03-02T03:58:33;37.75;;;16.92;;
85881;SDS011;76395;51.392;21.182;2024-03-02T03:59:34;26.85;;;17.08;;
85881;SDS011;76395;51.392;21.182;2024-03-02T04:00:51;31.15;;;17.35;;
85881;SDS011;76395;51.392;21.182;2024-03-02T04:01:52;33.20;;;17.50;;
85881;SDS011;76395;51.392;21.182;2024-03-02T04:03:00;35.70;;;18.55;;
85881;SDS011;76395;51.392;21.182;2024-03-02T04:04:01;29.80;;;17.17;;
85881;SDS011;76395;51.392;21.182;2024-03-02T04:05:05;33.03;;;16.38;;
85881;SDS011;76395;51.392;21.182;2024-03-02T04:06:09;32.70;;;17.25;;
85881;SDS011;76395;51.392;21.182;2024-03-02T04:07:14;29.58;;;17.00;;
85881;SDS011;76395;51.392;21.182;2024-03-02T04:08:18;32.28;;;17.02;;
85881;SDS011;76395;51.392;21.182;2024-03-02T04:09:24;31.95;;;16.90;;
85881;SDS011;76395;51.392;21.182;2024-03-02T04:10:26;32.67;;;17.38;;
85881;SDS011;76395;51.392;21.182;2024-03-02T04:11:27;28.83;;;16.52;;
85881;SDS011;76395;51.392;21.182;2024-03-02T04:12:28;30.75;;;16.63;;
85881;SDS011;76395;51.392;21.182;2024-03-02T04:13:29;31.05;;;16.45;;
85881;SDS011;76395;51.392;21.182;2024-03-02T04:14:30;32.75;;;17.63;;
85881;SDS011;76395;51.392;21.182;2024-03-02T04:15:31;29.63;;;16.38;;
85881;SDS011;76395;51.392;21.182;2024-03-02T04:16:32;29.67;;;15.65;;
85881;SDS011;76395;51.392;21.182;2024-03-02T04:17:34;31.50;;;16.30;;
85881;SDS011;76395;51.392;21.182;2024-03-02T04:18:36;30.67;;;17.08;;
85881;SDS011;76395;51.392;21.182;2024-03-02T04:19:41;29.88;;;15.77;;
85881;SDS011;76395;51.392;21.182;2024-03-02T04:20:42;31.38;;;16.67;;
85881;SDS011;76395;51.392;21.182;2024-03-02T04:21:45;30.77;;;17.02;;
85881;SDS011;76395;51.392;21.182;2024-03-02T04:22:46;32.53;;;16.88;;
85881;SDS011;76395;51.392;21.182;2024-03-02T04:23:47;31.83;;;16.85;;
85881;SDS011;76395;51.392;21.182;2024-03-02T04:24:48;31.70;;;17.08;;
85881;SDS011;76395;51.392;21.182;2024-03-02T04:26:55;31.75;;;16.38;;
85881;SDS011;76395;51.392;21.182;2024-03-02T04:28:01;28.60;;;15.15;;
85881;SDS011;76395;51.392;21.182;2024-03-02T04:29:03;28.52;;;15.98;;
85881;SDS011;76395;51.392;21.182;2024-03-02T04:30:11;32.55;;;16.20;;
85881;SDS011;76395;51.392;21.182;2024-03-02T04:31:12;31.63;;;16.95;;
85881;SDS011;76395;51.392;21.182;2024-03-02T04:33:18;28.25;;;16.20;;
85881;SDS011;76395;51.392;21.182;2024-03-02T04:34:23;29.05;;;15.82;;
85881;SDS011;76395;51.392;21.182;2024-03-02T04:35:26;34.92;;;17.20;;
85881;SDS011;76395;51.392;21.182;2024-03-02T04:36:29;30.63;;;15.23;;
85881;SDS011;76395;51.392;21.182;2024-03-02T04:37:30;31.00;;;16.30;;
85881;SDS011;76395;51.392;21.182;2024-03-02T04:38:31;32.45;;;16.52;;
85881;SDS011;76395;51.392;21.182;2024-03-02T04:39:34;35.40;;;18.88;;
85881;SDS011;76395;51.392;21.182;2024-03-02T04:40:39;30.92;;;16.45;;
85881;SDS011;76395;51.392;21.182;2024-03-02T04:41:45;29.75;;;15.50;;
85881;SDS011;76395;51.392;21.182;2024-03-02T04:42:48;30.52;;;16.05;;
85881;SDS011;76395;51.392;21.182;2024-03-02T04:43:53;34.00;;;18.42;;
85881;SDS011;76395;51.392;21.182;2024-03-02T04:44:54;30.00;;;15.70;;
85881;SDS011;76395;51.392;21.182;2024-03-02T04:45:55;34.75;;;17.00;;
85881;SDS011;76395;51.392;21.182;2024-03-02T04:46:58;27.20;;;15.98;;
85881;SDS011;76395;51.392;21.182;2024-03-02T04:48:02;38.38;;;16.08;;
85881;SDS011;76395;51.392;21.182;2024-03-02T04:49:03;29.70;;;15.43;;
85881;SDS011;76395;51.392;21.182;2024-03-02T04:50:05;31.42;;;16.55;;
85881;SDS011;76395;51.392;21.182;2024-03-02T04:51:08;30.85;;;15.30;;
85881;SDS011;76395;51.392;21.182;2024-03-02T04:52:10;27.83;;;15.40;;
85881;SDS011;76395;51.392;21.182;2024-03-02T04:53:11;26.88;;;16.50;;
85881;SDS011;76395;51.392;21.182;2024-03-02T04:54:15;32.42;;;16.88;;
85881;SDS011;76395;51.392;21.182;2024-03-02T04:55:21;27.90;;;16.20;;
85881;SDS011;76395;51.392;21.182;2024-03-02T04:56:36;31.23;;;16.38;;
85881;SDS011;76395;51.392;21.182;2024-03-02T04:57:49;28.55;;;16.48;;
85881;SDS011;76395;51.392;21.182;2024-03-02T04:58:53;31.02;;;15.75;;
85881;SDS011;76395;51.392;21.182;2024-03-02T04:59:55;29.83;;;16.27;;
85881;SDS011;76395;51.392;21.182;2024-03-02T05:00:56;29.80;;;15.27;;
85881;SDS011;76395;51.392;21.182;2024-03-02T05:01:57;29.42;;;15.73;;
85881;SDS011;76395;51.392;21.182;2024-03-02T05:03:00;32.95;;;16.83;;
85881;SDS011;76395;51.392;21.182;2024-03-02T05:04:02;30.95;;;16.27;;
85881;SDS011;76395;51.392;21.182;2024-03-02T05:05:05;31.02;;;16.13;;
85881;SDS011;76395;51.392;21.182;2024-03-02T05:06:09;28.30;;;15.80;;
85881;SDS011;76395;51.392;21.182;2024-03-02T05:07:10;31.98;;;17.05;;
85881;SDS011;76395;51.392;21.182;2024-03-02T05:08:11;30.40;;;16.08;;
85881;SDS011;76395;51.392;21.182;2024-03-02T05:09:21;34.40;;;17.08;;
85881;SDS011;76395;51.392;21.182;2024-03-02T05:10:24;27.48;;;15.68;;
85881;SDS011;76395;51.392;21.182;2024-03-02T05:11:29;29.13;;;14.95;;
85881;SDS011;76395;51.392;21.182;2024-03-02T05:12:39;30.13;;;16.65;;
85881;SDS011;76395;51.392;21.182;2024-03-02T05:13:47;32.05;;;16.58;;
85881;SDS011;76395;51.392;21.182;2024-03-02T05:14:48;29.23;;;15.82;;
85881;SDS011;76395;51.392;21.182;2024-03-02T05:15:50;29.20;;;15.23;;
85881;SDS011;76395;51.392;21.182;2024-03-02T05:16:52;31.10;;;16.35;;
85881;SDS011;76395;51.392;21.182;2024-03-02T05:17:54;32.03;;;15.73;;
85881;SDS011;76395;51.392;21.182;2024-03-02T05:18:57;30.35;;;15.63;;
85881;SDS011;76395;51.392;21.182;2024-03-02T05:19:58;30.45;;;15.80;;
85881;SDS011;76395;51.392;21.182;2024-03-02T05:20:59;35.00;;;15.18;;
85881;SDS011;76395;51.392;21.182;2024-03-02T05:22:03;30.08;;;16.33;;
85881;SDS011;76395;51.392;21.182;2024-03-02T05:23:04;33.65;;;17.27;;
85881;SDS011;76395;51.392;21.182;2024-03-02T05:24:06;30.67;;;17.10;;
85881;SDS011;76395;51.392;21.182;2024-03-02T05:25:09;32.97;;;16.75;;
85881;SDS011;76395;51.392;21.182;2024-03-02T05:26:11;31.45;;;16.33;;
85881;SDS011;76395;51.392;21.182;2024-03-02T05:27:14;33.25;;;17.00;;
85881;SDS011;76395;51.392;21.182;2024-03-02T05:28:16;33.10;;;16.73;;
85881;SDS011;76395;51.392;21.182;2024-03-02T05:29:24;31.70;;;15.35;;
85881;SDS011;76395;51.392;21.182;2024-03-02T05:30:25;30.52;;;15.40;;
85881;SDS011;76395;51.392;21.182;2024-03-02T05:31:32;25.92;;;14.88;;
85881;SDS011;76395;51.392;21.182;2024-03-02T05:32:33;33.17;;;16.15;;
85881;SDS011;76395;51.392;21.182;2024-03-02T05:33:34;30.98;;;14.65;;
85881;SDS011;76395;51.392;21.182;2024-03-02T05:34:35;33.88;;;16.38;;
85881;SDS011;76395;51.392;21.182;2024-03-02T05:35:36;34.03;;;17.40;;
85881;SDS011;76395;51.392;21.182;2024-03-02T05:36:37;31.60;;;16.42;;
85881;SDS011;76395;51.392;21.182;2024-03-02T05:37:39;30.85;;;15.73;;
85881;SDS011;76395;51.392;21.182;2024-03-02T05:38:41;33.88;;;15.93;;
85881;SDS011;76395;51.392;21.182;2024-03-02T05:39:43;29.98;;;16.20;;
85881;SDS011;76395;51.392;21.182;2024-03-02T05:40:44;31.23;;;15.82;;
85881;SDS011;76395;51.392;21.182;2024-03-02T05:41:45;30.58;;;16.58;;
85881;SDS011;76395;51.392;21.182;2024-03-02T05:42:47;31.33;;;15.80;;
85881;SDS011;76395;51.392;21.182;2024-03-02T05:43:48;31.85;;;16.83;;
85881;SDS011;76395;51.392;21.182;2024-03-02T05:44:50;29.15;;;16.15;;
85881;SDS011;76395;51.392;21.182;2024-03-02T05:45:51;28.45;;;15.32;;
85881;SDS011;76395;51.392;21.182;2024-03-02T05:46:53;30.60;;;16.48;;
85881;SDS011;76395;51.392;21.182;2024-03-02T05:48:08;30.52;;;15.48;;
85881;SDS011;76395;51.392;21.182;2024-03-02T05:49:09;33.08;;;15.50;;
85881;SDS011;76395;51.392;21.182;2024-03-02T05:50:11;29.40;;;15.73;;
85881;SDS011;76395;51.392;21.182;2024-03-02T05:51:23;32.70;;;14.98;;
85881;SDS011;76395;51.392;21.182;2024-03-02T05:52:28;28.17;;;15.20;;
85881;SDS011;76395;51.392;21.182;2024-03-02T05:53:30;35.65;;;17.30;;
85881;SDS011;76395;51.392;21.182;2024-03-02T05:54:34;32.38;;;16.88;;
85881;SDS011;76395;51.392;21.182;2024-03-02T05:55:35;35.10;;;15.88;;
85881;SDS011;76395;51.392;21.182;2024-03-02T05:56:39;30.25;;;15.50;;
85881;SDS011;76395;51.392;21.182;2024-03-02T05:57:40;32.47;;;16.85;;
85881;SDS011;76395;51.392;21.182;2024-03-02T05:58:44;34.00;;;16.60;;
85881;SDS011;76395;51.392;21.182;2024-03-02T05:59:48;35.60;;;17.88;;
85881;SDS011;76395;51.392;21.182;2024-03-02T06:00:52;35.50;;;17.30;;
85881;SDS011;76395;51.392;21.182;2024-03-02T06:01:55;37.20;;;17.38;;
85881;SDS011;76395;51.392;21.182;2024-03-02T06:02:56;30.08;;;16.60;;
85881;SDS011;76395;51.392;21.182;2024-03-02T06:03:57;31.13;;;16.58;;
85881;SDS011;76395;51.392;21.182;2024-03-02T06:04:59;35.13;;;16.60;;
85881;SDS011;76395;51.392;21.182;2024-03-02T06:06:00;31.73;;;16.33;;
85881;SDS011;76395;51.392;21.182;2024-03-02T06:07:01;35.15;;;19.08;;
85881;SDS011;76395;51.392;21.182;2024-03-02T06:08:02;39.60;;;19.48;;
85881;SDS011;76395;51.392;21.182;2024-03-02T06:09:05;35.75;;;19.13;;
85881;SDS011;76395;51.392;21.182;2024-03-02T06:10:17;32.40;;;17.75;;
85881;SDS011;76395;51.392;21.182;2024-03-02T06:11:21;29.98;;;17.60;;
85881;SDS011;76395;51.392;21.182;2024-03-02T06:12:22;37.45;;;17.33;;
85881;SDS011;76395;51.392;21.182;2024-03-02T06:13:24;33.17;;;17.13;;
85881;SDS011;76395;51.392;21.182;2024-03-02T06:14:26;28.95;;;15.95;;
85881;SDS011;76395;51.392;21.182;2024-03-02T06:15:28;31.83;;;16.20;;
85881;SDS011;76395;51.392;21.182;2024-03-02T06:16:30;41.13;;;17.80;;
85881;SDS011;76395;51.392;21.182;2024-03-02T06:17:37;34.10;;;16.98;;
85881;SDS011;76395;51.392;21.182;2024-03-02T06:18:38;30.73;;;16.08;;
85881;SDS011;76395;51.392;21.182;2024-03-02T06:19:39;35.95;;;16.92;;
85881;SDS011;76395;51.392;21.182;2024-03-02T06:20:42;29.75;;;16.60;;
85881;SDS011;76395;51.392;21.182;2024-03-02T06:21:43;31.27;;;16.50;;
85881;SDS011;76395;51.392;21.182;2024-03-02T06:22:44;33.80;;;16.83;;
85881;SDS011;76395;51.392;21.182;2024-03-02T06:23:45;34.67;;;16.08;;
85881;SDS011;76395;51.392;21.182;2024-03-02T06:24:47;38.30;;;17.40;;
85881;SDS011;76395;51.392;21.182;2024-03-02T06:25:48;34.53;;;16.48;;
85881;SDS011;76395;51.392;21.182;2024-03-02T06:26:50;34.92;;;17.25;;
85881;SDS011;76395;51.392;21.182;2024-03-02T06:27:50;33.53;;;16.02;;
85881;SDS011;76395;51.392;21.182;2024-03-02T06:28:52;38.85;;;16.75;;
85881;SDS011;76395;51.392;21.182;2024-03-02T06:29:55;33.80;;;17.02;;
85881;SDS011;76395;51.392;21.182;2024-03-02T06:30:55;32.78;;;17.80;;
85881;SDS011;76395;51.392;21.182;2024-03-02T06:31:56;36.40;;;17.33;;
85881;SDS011;76395;51.392;21.182;2024-03-02T06:32:57;30.95;;;16.33;;
85881;SDS011;76395;51.392;21.182;2024-03-02T06:33:58;33.67;;;18.00;;
85881;SDS011;76395;51.392;21.182;2024-03-02T06:34:59;34.00;;;18.10;;
85881;SDS011;76395;51.392;21.182;2024-03-02T06:36:00;32.67;;;16.73;;
85881;SDS011;76395;51.392;21.182;2024-03-02T06:37:02;34.55;;;16.88;;
85881;SDS011;76395;51.392;21.182;2024-03-02T06:38:03;36.65;;;18.15;;
85881;SDS011;76395;51.392;21.182;2024-03-02T06:39:05;34.35;;;16.80;;
85881;SDS011;76395;51.392;21.182;2024-03-02T06:40:07;39.60;;;19.02;;
85881;SDS011;76395;51.392;21.182;2024-03-02T06:41:08;34.40;;;17.10;;
85881;SDS011;76395;51.392;21.182;2024-03-02T06:42:10;38.92;;;17.75;;
85881;SDS011;76395;51.392;21.182;2024-03-02T06:43:11;34.85;;;17.00;;
85881;SDS011;76395;51.392;21.182;2024-03-02T06:44:12;34.50;;;17.90;;
85881;SDS011;76395;51.392;21.182;2024-03-02T06:45:13;34.88;;;16.88;;
85881;SDS011;76395;51.392;21.182;2024-03-02T06:46:15;34.85;;;17.23;;
85881;SDS011;76395;51.392;21.182;2024-03-02T06:47:16;41.30;;;18.02;;
85881;SDS011;76395;51.392;21.182;2024-03-02T06:48:18;36.95;;;18.40;;
85881;SDS011;76395;51.392;21.182;2024-03-02T06:49:24;33.33;;;18.35;;
85881;SDS011;76395;51.392;21.182;2024-03-02T06:50:25;35.83;;;18.95;;
85881;SDS011;76395;51.392;21.182;2024-03-02T06:51:27;36.83;;;17.98;;
85881;SDS011;76395;51.392;21.182;2024-03-02T06:52:28;35.00;;;17.70;;
85881;SDS011;76395;51.392;21.182;2024-03-02T06:53:29;35.28;;;18.60;;
85881;SDS011;76395;51.392;21.182;2024-03-02T06:54:30;31.55;;;16.85;;
85881;SDS011;76395;51.392;21.182;2024-03-02T06:55:31;37.85;;;18.42;;
85881;SDS011;76395;51.392;21.182;2024-03-02T06:56:33;36.85;;;18.17;;
85881;SDS011;76395;51.392;21.182;2024-03-02T06:58:36;37.60;;;18.15;;
85881;SDS011;76395;51.392;21.182;2024-03-02T06:59:38;36.28;;;16.85;;
85881;SDS011;76395;51.392;21.182;2024-03-02T07:00:39;38.58;;;18.85;;
85881;SDS011;76395;51.392;21.182;2024-03-02T07:01:40;36.15;;;18.75;;
85881;SDS011;76395;51.392;21.182;2024-03-02T07:02:44;34.15;;;17.65;;
85881;SDS011;76395;51.392;21.182;2024-03-02T07:03:49;38.55;;;18.42;;
85881;SDS011;76395;51.392;21.182;2024-03-02T07:04:50;32.50;;;17.83;;
85881;SDS011;76395;51.392;21.182;2024-03-02T07:05:52;33.78;;;17.17;;
85881;SDS011;76395;51.392;21.182;2024-03-02T07:06:53;33.83;;;16.80;;
85881;SDS011;76395;51.392;21.182;2024-03-02T07:07:53;35.70;;;17.83;;
85881;SDS011;76395;51.392;21.182;2024-03-02T07:08:55;38.13;;;19.70;;
85881;SDS011;76395;51.392;21.182;2024-03-02T07:09:56;40.30;;;18.25;;
85881;SDS011;76395;51.392;21.182;2024-03-02T07:10:57;37.63;;;17.23;;
85881;SDS011;76395;51.392;21.182;2024-03-02T07:11:57;36.80;;;18.30;;
85881;SDS011;76395;51.392;21.182;2024-03-02T07:12:58;37.35;;;18.67;;
85881;SDS011;76395;51.392;21.182;2024-03-02T07:13:59;37.08;;;17.67;;
85881;SDS011;76395;51.392;21.182;2024-03-02T07:15:00;33.42;;;17.13;;
85881;SDS011;76395;51.392;21.182;2024-03-02T07:17:33;34.58;;;16.55;;
85881;SDS011;76395;51.392;21.182;2024-03-02T07:18:34;40.03;;;20.67;;
85881;SDS011;76395;51.392;21.182;2024-03-02T07:19:41;38.92;;;19.70;;
85881;SDS011;76395;51.392;21.182;2024-03-02T07:20:42;41.30;;;20.00;;
85881;SDS011;76395;51.392;21.182;2024-03-02T07:21:43;40.92;;;19.08;;
85881;SDS011;76395;51.392;21.182;2024-03-02T07:22:44;39.22;;;18.60;;
85881;SDS011;76395;51.392;21.182;2024-03-02T07:23:45;39.83;;;19.67;;
85881;SDS011;76395;51.392;21.182;2024-03-02T07:24:47;39.70;;;19.20;;
85881;SDS011;76395;51.392;21.182;2024-03-02T07:25:50;39.35;;;18.83;;
85881;SDS011;76395;51.392;21.182;2024-03-02T07:26:52;34.65;;;17.73;;
85881;SDS011;76395;51.392;21.182;2024-03-02T07:27:53;41.63;;;21.05;;
85881;SDS011;76395;51.392;21.182;2024-03-02T07:28:53;38.33;;;19.48;;
85881;SDS011;76395;51.392;21.182;2024-03-02T07:29:56;39.20;;;19.70;;
85881;SDS011;76395;51.392;21.182;2024-03-02T07:31:00;36.05;;;19.63;;
85881;SDS011;76395;51.392;21.182;2024-03-02T07:32:02;43.42;;;19.42;;
85881;SDS011;76395;51.392;21.182;2024-03-02T07:33:03;37.65;;;19.38;;
85881;SDS011;76395;51.392;21.182;2024-03-02T07:34:04;40.85;;;19.17;;
85881;SDS011;76395;51.392;21.182;2024-03-02T07:35:06;42.03;;;18.63;;
85881;SDS011;76395;51.392;21.182;2024-03-02T07:36:08;36.80;;;19.17;;
85881;SDS011;76395;51.392;21.182;2024-03-02T07:37:09;43.67;;;20.85;;
85881;SDS011;76395;51.392;21.182;2024-03-02T07:38:10;41.75;;;18.77;;
85881;SDS011;76395;51.392;21.182;2024-03-02T07:39:13;38.15;;;18.85;;
85881;SDS011;76395;51.392;21.182;2024-03-02T07:40:14;44.30;;;19.25;;
85881;SDS011;76395;51.392;21.182;2024-03-02T07:41:17;38.80;;;19.20;;
85881;SDS011;76395;51.392;21.182;2024-03-02T07:42:19;36.95;;;18.50;;
85881;SDS011;76395;51.392;21.182;2024-03-02T07:43:21;43.40;;;19.92;;
85881;SDS011;76395;51.392;21.182;2024-03-02T07:44:22;39.40;;;19.05;;
85881;SDS011;76395;51.392;21.182;2024-03-02T07:45:23;40.25;;;19.60;;
85881;SDS011;76395;51.392;21.182;2024-03-02T07:46:25;36.95;;;18.50;;
85881;SDS011;76395;51.392;21.182;2024-03-02T07:47:26;43.92;;;19.50;;
85881;SDS011;76395;51.392;21.182;2024-03-02T07:48:27;38.15;;;19.35;;
85881;SDS011;76395;51.392;21.182;2024-03-02T07:49:28;38.45;;;18.48;;
85881;SDS011;76395;51.392;21.182;2024-03-02T07:50:29;43.75;;;19.77;;
85881;SDS011;76395;51.392;21.182;2024-03-02T07:51:34;34.67;;;17.08;;
85881;SDS011;76395;51.392;21.182;2024-03-02T07:52:36;41.90;;;18.83;;
85881;SDS011;76395;51.392;21.182;2024-03-02T07:53:37;41.75;;;20.20;;
85881;SDS011;76395;51.392;21.182;2024-03-02T07:54:38;40.45;;;21.05;;
85881;SDS011;76395;51.392;21.182;2024-03-02T07:55:39;43.17;;;19.95;;
85881;SDS011;76395;51.392;21.182;2024-03-02T07:56:40;41.90;;;19.50;;
85881;SDS011;76395;51.392;21.182;2024-03-02T07:57:41;38.20;;;20.15;;
85881;SDS011;76395;51.392;21.182;2024-03-02T07:58:43;42.40;;;19.20;;
85881;SDS011;76395;51.392;21.182;2024-03-02T07:59:48;38.00;;;19.23;;
85881;SDS011;76395;51.392;21.182;2024-03-02T08:00:52;38.65;;;19.60;;
85881;SDS011;76395;51.392;21.182;2024-03-02T08:01:56;41.72;;;21.17;;
85881;SDS011;76395;51.392;21.182;2024-03-02T08:02:58;42.90;;;20.75;;
85881;SDS011;76395;51.392;21.182;2024-03-02T08:04:00;46.33;;;19.90;;
85881;SDS011;76395;51.392;21.182;2024-03-02T08:05:02;46.10;;;21.52;;
85881;SDS011;76395;51.392;21.182;2024-03-02T08:06:03;45.20;;;22.48;;
85881;SDS011;76395;51.392;21.182;2024-03-02T08:07:15;48.47;;;22.15;;
85881;SDS011;76395;51.392;21.182;2024-03-02T08:08:16;47.03;;;21.27;;
85881;SDS011;76395;51.392;21.182;2024-03-02T08:09:17;43.85;;;19.75;;
85881;SDS011;76395;51.392;21.182;2024-03-02T08:10:19;39.20;;;18.98;;
85881;SDS011;76395;51.392;21.182;2024-03-02T08:11:20;41.17;;;18.58;;